»·PEaware :: N2102W KMFR-KOTH

N2102W :: KMFR-KOTH

FLIGHT INFORMATION

Flight Status: Arrived
Operator: Privately registered:
United States
More flights under this callsign
Pilot: Eric G. (5941)
Aircraft: BEECH AIRCRAFT PREMIER
(PRM1)
More flights by this aircraft type
Origin: KMFR Rogue Valley Intl-Medford
United States
Destination: KOTH North Bend Mun
United States
More flights between these airports :: More routes between these airports
Route: +JKSN1 OED OTH
File this flight plan on PilotEdge
Remarks:
Altitude:
(Current/Filed)
26,000ft
Speed:
(Current/Filed)
300kts
Departed: 22-Oct-18 04:03 PM
Arrived: 22-Oct-18 04:33 PM
Distance/Time
Traveled:
557nm/0:30
Distance/Time
To Go:
Arrived

Flight Plot

Page will automatically refresh every two minutes.

Flight plan parsing failed; only flown route is shown


Map Options




Map Legend


Flown Route
Filed Route
Departure Airport
Arrival Airport
Navaid (VOR, NDB)
Fix

Horizontal Profiles

Position Reports

Time Latitude Longitude Heading Altitude Ground
Speed
22-Oct-18 15:45 42.375115 -122.878810 291 1340ft 0kts
22-Oct-18 15:46 42.375115 -122.878812 291 1340ft 0kts
22-Oct-18 15:47 42.375116 -122.878815 291 1340ft 0kts
22-Oct-18 15:48 42.375117 -122.878817 291 1340ft 0kts
22-Oct-18 15:49 42.375117 -122.878819 291 1340ft 0kts
22-Oct-18 15:50 42.375118 -122.878821 291 1340ft 0kts
22-Oct-18 15:51 42.375119 -122.878824 291 1340ft 0kts
22-Oct-18 15:52 42.375119 -122.878826 291 1340ft 0kts
22-Oct-18 15:53 42.375120 -122.878828 291 1340ft 0kts
22-Oct-18 15:54 42.374990 -122.878939 175 1340ft 0kts
22-Oct-18 15:55 42.374988 -122.878939 175 1340ft 0kts
22-Oct-18 15:56 42.375080 -122.878626 21 1340ft 1kts
22-Oct-18 15:57 42.375094 -122.878618 21 1340ft 0kts
22-Oct-18 15:58 42.375220 -122.878549 24 1340ft 9kts
22-Oct-18 15:59 42.378023 -122.876350 338 1340ft 18kts
22-Oct-18 16:00 42.383193 -122.879100 338 1340ft 19kts
22-Oct-18 16:01 42.385748 -122.879972 63 1340ft 0kts
22-Oct-18 16:02 42.385749 -122.879970 63 1340ft 0kts
22-Oct-18 16:03 42.385750 -122.879968 63 1340ft 0kts
22-Oct-18 16:04 42.385841 -122.878890 152 1340ft 0kts
22-Oct-18 16:05 42.365458 -122.868344 158 1806ft 173kts
22-Oct-18 16:06 42.334415 -122.905944 292 6123ft 207kts
22-Oct-18 16:07 42.388847 -122.938756 351 9141ft 234kts
22-Oct-18 16:08 42.458028 -122.922922 17 12491ft 265kts
22-Oct-18 16:09 42.526340 -122.956517 307 15390ft 305kts
22-Oct-18 16:10 42.583028 -123.051550 311 17477ft 324kts
22-Oct-18 16:11 42.645044 -123.139772 317 19737ft 328kts
22-Oct-18 16:12 42.714443 -123.236800 312 20096ft 378kts
22-Oct-18 16:13 42.788791 -123.341642 316 20090ft 389kts
22-Oct-18 16:14 42.866033 -123.442149 316 19652ft 355kts
22-Oct-18 16:15 42.924393 -123.542920 300 17986ft 343kts
22-Oct-18 16:16 42.966160 -123.650241 293 15860ft 300kts
22-Oct-18 16:17 42.999841 -123.752225 292 13563ft 292kts
22-Oct-18 16:18 43.034344 -123.853074 294 11262ft 292kts
22-Oct-18 16:19 43.068557 -123.950132 294 8961ft 257kts
22-Oct-18 16:20 43.096221 -124.029257 294 7825ft 200kts
22-Oct-18 16:21 43.123076 -124.104416 294 5339ft 227kts
22-Oct-18 16:22 43.145355 -124.177614 262 3964ft 177kts
22-Oct-18 16:23 43.153540 -124.241408 284 4008ft 189kts
22-Oct-18 16:24 43.171077 -124.310965 291 3588ft 186kts
22-Oct-18 16:25 43.195083 -124.372054 300 2983ft 180kts
22-Oct-18 16:26 43.225384 -124.426268 311 2427ft 177kts
22-Oct-18 16:27 43.262247 -124.472946 323 2400ft 191kts
22-Oct-18 16:28 43.307096 -124.500157 348 2375ft 153kts
22-Oct-18 16:29 43.333142 -124.463994 68 2377ft 133kts
22-Oct-18 16:30 43.350173 -124.417766 62 2519ft 134kts
22-Oct-18 16:31 43.369230 -124.370977 60 1802ft 145kts
22-Oct-18 16:32 43.386759 -124.326907 62 1186ft 127kts
22-Oct-18 16:33 43.404223 -124.285773 61 422ft 121kts
22-Oct-18 16:34 43.419366 -124.249128 56 13ft 58kts
22-Oct-18 16:35 43.422765 -124.240963 84 13ft 15kts
22-Oct-18 16:36 43.421331 -124.240185 177 13ft 14kts
22-Oct-18 16:37 43.418737 -124.245684 242 13ft 21kts
22-Oct-18 16:38 43.417554 -124.247143 79 13ft 3kts
22-Oct-18 16:39 43.417590 -124.247060 46 13ft 0kts
22-Oct-18 16:40 43.417592 -124.247058 46 13ft 0kts
22-Oct-18 16:41 43.417592 -124.247057 46 11ft 0kts
22-Oct-18 16:42 43.417592 -124.247057 46 11ft 0kts
22-Oct-18 16:43 43.417592 -124.247057 46 11ft 0kts
22-Oct-18 16:44 43.417592 -124.247057 46 11ft 0kts
22-Oct-18 16:45 33.801328 -118.341026 219 106ft 0kts
22-Oct-18 16:46 33.801264 -118.341034 148 106ft 3kts
22-Oct-18 16:47 33.801282 -118.340937 25 106ft 0kts
22-Oct-18 16:48 33.801282 -118.340937 25 106ft 0kts

Navigation Log

Ident Type
Flight plan parsing failed, navigation log unavailable